Main page
METAR-TAF:

METAR-TAF

Airports :

Athens, Greece

Athens International Airport

latitude: 37-56N, longitude: 023-56E, elevation: 94 m

Current weather observation

The report was made 21 minutes ago, at 10:20 UTC
Wind 8 kt from the East
Temperature 36°C
Humidity 29%
Pressure 1012 hPa
Visibility 10 km or more
no clouds below 1500 m and no cumulonimbus

METAR: LGAV 291020Z 08008KT CAVOK 36/15 Q1012 NOSIG

Time: 13:41 (10:41 UTC)

Forecast

The report was made 5 hours and 41 minutes ago, at 05:00 UTC
Forecast valid from 29 at 06 UTC to 30 at 06 UTC
Wind 3 kt from variable directions
Visibility 10 km or more
Few clouds at a height of 2500 ft
Becoming
from 29 at 10 UTC to 29 at 12 UTC
Wind 10 kt from the East/Southeast
Becoming
from 29 at 13 UTC to 29 at 15 UTC
Wind 10 kt from the South/Southwest

TAF: LGAV 290500Z 2906/3006 VRB03KT 9999 FEW025 BECMG 2910/2912 12010KT BECMG 2913/2915 20010KT

Weather observations and forecasts of more than 4000 airports (METAR and TAF reports).

The available stations are represented by yellow and red dots on the map.

Hover mouse over dot to see the name of the station.

Then click to see weather observations and forecasts.

To change the map : click on the green buttons with a black cross to zoom in, on the green button with a dash to zoom out, or on the green arrows for adjacent maps.


METAR-TAF: